Time;durP1;ratioP1;P1;durP2;ratioP2;P2;SDS_P1;SDS_P2;PMS_P1;PMS_P2;Temp;Humidity;BMP_temperature;BMP_pressure;BME280_temperature;BME280_humidity;BME280_pressure;Samples;Min_cycle;Max_cycle;Signal;HPM_P1;HPM_P2
2021/08/25 00:01:18;;;;;;;16.23;13.40;;;;;;;16.18;68.76;97264.72;5037174;28;20440;-69
2021/08/25 00:03:44;;;;;;;17.30;13.03;;;;;;;15.94;69.61;97268.50;5049978;28;20179;-69
2021/08/25 00:06:10;;;;;;;16.57;13.60;;;;;;;16.01;69.90;97266.75;5051513;28;20244;-70
2021/08/25 00:08:36;;;;;;;14.00;12.50;;;;;;;16.13;69.20;97264.47;5051550;28;20198;-69
2021/08/25 00:11:03;;;;;;;17.07;13.60;;;;;;;15.85;70.40;97274.91;5050435;28;20425;-70
2021/08/25 00:13:29;;;;;;;14.93;13.37;;;;;;;16.17;69.00;97260.44;5034670;28;20430;-70
2021/08/25 00:15:55;;;;;;;15.23;13.53;;;;;;;15.71;70.97;97261.50;5050348;28;20421;-71
2021/08/25 00:18:21;;;;;;;16.87;14.07;;;;;;;15.94;70.22;97265.88;5047840;28;20195;-68
2021/08/25 00:20:46;;;;;;;16.93;14.03;;;;;;;15.96;69.92;97269.97;5045556;28;20487;-70
2021/08/25 00:23:12;;;;;;;15.30;13.70;;;;;;;16.32;68.61;97262.22;5049657;28;20429;-68
2021/08/25 00:25:38;;;;;;;14.37;12.87;;;;;;;16.38;67.90;97264.91;5045216;28;20689;-70
2021/08/25 00:28:04;;;;;;;14.70;13.20;;;;;;;16.03;69.28;97258.66;5049974;28;20655;-70
2021/08/25 00:30:29;;;;;;;16.13;14.00;;;;;;;15.73;70.70;97263.94;5047655;28;20198;-69
2021/08/25 00:32:55;;;;;;;18.17;13.40;;;;;;;16.19;69.10;97257.59;5046654;28;20425;-70
2021/08/25 00:35:21;;;;;;;15.97;14.10;;;;;;;15.97;69.46;97268.97;5050024;28;20183;-69
2021/08/25 00:37:46;;;;;;;14.90;13.30;;;;;;;16.03;69.57;97256.81;5050104;28;20262;-70
2021/08/25 00:40:12;;;;;;;15.70;14.10;;;;;;;16.04;69.23;97249.72;5050553;28;20199;-69
2021/08/25 00:42:38;;;;;;;16.23;13.70;;;;;;;16.16;68.62;97255.34;5045857;28;20190;-70
2021/08/25 00:45:05;;;;;;;17.40;13.53;;;;;;;16.21;68.41;97250.31;5045501;28;21181;-69
2021/08/25 00:47:33;;;;;;;18.43;13.37;;;;;;;16.18;68.35;97248.03;5050603;28;20186;-70
2021/08/25 00:49:59;;;;;;;15.67;13.50;;;;;;;16.12;68.49;97247.78;5052844;28;20437;-69
2021/08/25 00:52:24;;;;;;;17.40;13.70;;;;;;;16.07;68.75;97234.31;5050800;28;20529;-70
2021/08/25 00:54:50;;;;;;;14.47;12.90;;;;;;;16.17;68.10;97230.53;5049543;28;20186;-70
2021/08/25 00:57:16;;;;;;;13.60;12.20;;;;;;;16.06;68.32;97237.94;5050238;28;20667;-69
2021/08/25 00:59:41;;;;;;;15.53;13.93;;;;;;;16.05;68.58;97233.66;5049603;28;20206;-68
2021/08/25 01:02:10;;;;;;;16.00;13.70;;;;;;;16.01;68.81;97232.41;5039115;28;20554;-69
2021/08/25 01:04:42;;;;;;;15.83;13.90;;;;;;;16.01;68.70;97232.41;5053691;28;20210;-69
2021/08/25 01:07:09;;;;;;;19.00;13.53;;;;;;;16.04;68.35;97239.16;5053353;28;20421;-69
2021/08/25 01:09:39;;;;;;;14.40;13.00;;;;;;;15.97;68.67;97237.25;5045661;28;20522;-70
2021/08/25 01:12:07;;;;;;;15.90;14.10;;;;;;;16.00;68.59;97238.72;5053748;28;20990;-70
2021/08/25 01:14:32;;;;;;;15.50;13.80;;;;;;;16.05;68.51;97238.16;5051997;28;20966;-71
2021/08/25 01:16:58;;;;;;;14.83;13.10;;;;;;;16.10;68.34;97235.75;5054603;28;20425;-70
2021/08/25 01:19:25;;;;;;;15.03;13.40;;;;;;;16.05;68.26;97228.38;5045717;28;20199;-70
2021/08/25 01:21:51;;;;;;;17.40;13.77;;;;;;;16.10;67.88;97219.88;5053662;28;20217;-70
2021/08/25 01:24:18;;;;;;;17.57;13.90;;;;;;;16.08;67.91;97222.72;5051782;28;20921;-69
2021/08/25 01:26:46;;;;;;;16.30;13.60;;;;;;;15.96;68.50;97221.56;5048876;28;20690;-70
2021/08/25 01:29:18;;;;;;;15.30;13.70;;;;;;;16.00;68.34;97222.84;5050272;28;20952;-70
2021/08/25 01:31:44;;;;;;;15.67;13.73;;;;;;;16.01;68.07;97224.47;5039593;28;20467;-71
2021/08/25 01:34:09;;;;;;;15.83;14.20;;;;;;;16.03;67.87;97208.44;5053338;28;20421;-69
2021/08/25 01:36:35;;;;;;;16.53;13.77;;;;;;;15.94;68.18;97205.09;5054302;28;20550;-69
2021/08/25 01:39:01;;;;;;;16.70;13.70;;;;;;;16.01;67.80;97203.31;5052738;28;20226;-70
2021/08/25 01:41:27;;;;;;;18.20;14.73;;;;;;;16.00;67.67;97201.72;5046707;28;20425;-69
2021/08/25 01:43:57;;;;;;;15.03;13.10;;;;;;;16.00;67.60;97204.34;5053373;28;20191;-70
2021/08/25 01:46:29;;;;;;;14.40;12.90;;;;;;;15.94;67.54;97202.44;5046698;28;20188;-68
2021/08/25 01:48:58;;;;;;;17.93;12.63;;;;;;;15.86;67.76;97197.28;5054792;28;20445;-70
2021/08/25 01:51:30;;;;;;;15.17;13.63;;;;;;;15.86;67.66;97192.00;5054561;28;20422;-72
2021/08/25 01:53:59;;;;;;;14.80;13.30;;;;;;;15.85;67.64;97182.44;5053306;28;20421;-70
2021/08/25 01:56:26;;;;;;;16.50;13.77;;;;;;;15.81;67.94;97195.16;5053964;28;20429;-70
2021/08/25 01:58:52;;;;;;;14.30;12.80;;;;;;;15.80;67.87;97196.97;5051513;28;20457;-70
2021/08/25 02:01:18;;;;;;;16.23;13.80;;;;;;;15.77;67.54;97191.25;5039846;28;20427;-70
2021/08/25 02:03:44;;;;;;;16.90;13.00;;;;;;;15.57;68.44;97193.66;5043572;28;20805;-70
2021/08/25 02:06:09;;;;;;;19.60;14.33;;;;;;;15.59;68.51;97199.56;5052459;28;20181;-71
2021/08/25 02:08:35;;;;;;;16.23;14.23;;;;;;;14.98;70.84;97209.31;5052599;28;20309;-71
2021/08/25 02:11:01;;;;;;;18.33;15.17;;;;;;;15.14;70.62;97210.94;5053412;28;20179;-71
2021/08/25 02:13:26;;;;;;;15.80;14.10;;;;;;;15.41;69.52;97206.03;5049879;28;20176;-70
2021/08/25 02:15:52;;;;;;;16.63;14.00;;;;;;;15.18;70.77;97206.16;5048659;28;20186;-71
2021/08/25 02:18:17;;;;;;;22.20;14.87;;;;;;;14.95;71.86;97203.56;5042742;28;20192;-71
2021/08/25 02:20:44;;;;;;;16.80;15.00;;;;;;;15.03;71.34;97201.69;5041324;28;20179;-71
2021/08/25 02:23:09;;;;;;;17.60;15.30;;;;;;;14.94;72.00;97199.28;5050207;28;20661;-71
2021/08/25 02:25:35;;;;;;;17.10;14.10;;;;;;;15.26;70.38;97194.66;5049892;28;20465;-71
2021/08/25 02:28:00;;;;;;;17.80;13.87;;;;;;;15.37;69.70;97194.22;5049214;28;20175;-70
2021/08/25 02:30:26;;;;;;;18.93;14.90;;;;;;;15.40;69.53;97183.28;5040854;28;20711;-71
2021/08/25 02:32:52;;;;;;;16.30;13.37;;;;;;;15.48;69.33;97177.06;5043077;28;20864;-71
2021/08/25 02:35:17;;;;;;;17.23;14.20;;;;;;;15.44;68.99;97173.16;5051992;28;20670;-70
2021/08/25 02:37:43;;;;;;;20.17;13.60;;;;;;;15.31;69.70;97173.81;5052241;28;20179;-70
2021/08/25 02:40:10;;;;;;;16.70;14.20;;;;;;;15.30;69.49;97186.22;5050785;28;20705;-70
2021/08/25 02:42:35;;;;;;;18.53;15.07;;;;;;;15.24;70.04;97183.50;5053038;28;20710;-70
2021/08/25 02:45:03;;;;;;;18.97;14.83;;;;;;;15.22;69.80;97177.56;5051640;28;20456;-70
2021/08/25 02:47:29;;;;;;;18.40;14.40;;;;;;;14.94;71.31;97178.19;5052122;28;20433;-70
2021/08/25 02:49:54;;;;;;;17.20;15.07;;;;;;;15.11;70.53;97174.38;5059620;28;20553;-70
2021/08/25 02:52:20;;;;;;;16.80;14.83;;;;;;;15.12;70.38;97175.19;5054576;28;20561;-70
2021/08/25 02:54:45;;;;;;;15.97;14.27;;;;;;;14.69;72.57;97175.78;5051693;28;20225;-70
2021/08/25 02:57:11;;;;;;;20.03;15.10;;;;;;;14.33;74.19;97171.94;5052185;28;20329;-70
2021/08/25 02:59:37;;;;;;;20.90;15.40;;;;;;;14.83;72.16;97166.25;5051491;28;20210;-68
2021/08/25 03:02:02;;;;;;;19.07;16.30;;;;;;;14.50;73.25;97167.34;5045305;28;20425;-70
2021/08/25 03:04:28;;;;;;;20.30;15.13;;;;;;;14.78;72.52;97161.50;5050787;28;20875;-69
2021/08/25 03:06:53;;;;;;;19.43;14.90;;;;;;;14.92;71.57;97161.72;5052185;28;20262;-70
2021/08/25 03:09:19;;;;;;;19.97;15.03;;;;;;;14.57;73.05;97156.91;5051806;28;20206;-70
2021/08/25 03:11:45;;;;;;;18.77;16.77;;;;;;;14.69;72.44;97158.13;5048866;28;20183;-70
2021/08/25 03:14:10;;;;;;;18.50;15.43;;;;;;;14.94;71.72;97157.06;5049523;28;20650;-69
2021/08/25 03:16:36;;;;;;;17.87;15.30;;;;;;;15.01;71.06;97152.69;5051803;28;20183;-70
2021/08/25 03:19:01;;;;;;;16.97;14.53;;;;;;;14.98;71.00;97151.25;5041017;28;20582;-69
2021/08/25 03:21:27;;;;;;;18.70;14.43;;;;;;;15.01;70.89;97152.69;5034065;28;20324;-70
2021/08/25 03:23:52;;;;;;;20.40;14.07;;;;;;;15.08;70.55;97152.78;5049265;28;20178;-70
2021/08/25 03:26:18;;;;;;;16.30;13.47;;;;;;;15.11;70.28;97163.00;5051657;28;20265;-70
2021/08/25 03:28:44;;;;;;;18.13;15.00;;;;;;;15.11;69.90;97158.56;5051825;28;20666;-70
2021/08/25 03:31:10;;;;;;;18.50;15.07;;;;;;;15.08;69.94;97158.06;5052225;28;20190;-70
2021/08/25 03:33:36;;;;;;;19.13;16.03;;;;;;;15.04;70.02;97157.63;5050245;28;20437;-70
2021/08/25 03:36:01;;;;;;;17.33;15.00;;;;;;;14.98;70.32;97153.88;5051284;28;20932;-70
2021/08/25 03:38:27;;;;;;;18.87;15.10;;;;;;;14.96;70.38;97144.53;5051071;28;20195;-70
2021/08/25 03:40:52;;;;;;;18.17;14.60;;;;;;;14.96;70.25;97145.34;5051351;28;20183;-70
2021/08/25 03:43:18;;;;;;;21.50;15.30;;;;;;;14.78;71.58;97143.03;5049707;28;20209;-70
2021/08/25 03:45:44;;;;;;;22.93;15.13;;;;;;;14.91;70.84;97147.72;5051165;28;20186;-70
2021/08/25 03:48:09;;;;;;;20.63;15.37;;;;;;;14.65;71.85;97148.09;5051014;28;20670;-71
2021/08/25 03:50:35;;;;;;;18.27;15.97;;;;;;;14.77;71.56;97151.97;5046173;28;20238;-71
2021/08/25 03:53:00;;;;;;;16.63;14.50;;;;;;;14.91;70.78;97137.16;5051080;28;20552;-70
2021/08/25 03:55:26;;;;;;;18.50;15.10;;;;;;;14.95;70.68;97142.88;5049955;28;20179;-69
2021/08/25 03:57:51;;;;;;;18.43;15.43;;;;;;;15.01;70.74;97136.88;5051563;28;20545;-69
2021/08/25 04:00:17;;;;;;;26.90;15.23;;;;;;;14.99;69.98;97141.53;5051042;28;20213;-69
2021/08/25 04:02:42;;;;;;;19.80;14.77;;;;;;;15.00;70.13;97135.22;5050363;28;20183;-69
2021/08/25 04:05:08;;;;;;;17.43;15.33;;;;;;;14.91;70.49;97134.53;5049828;28;20182;-69
2021/08/25 04:07:34;;;;;;;31.67;14.97;;;;;;;15.00;69.75;97135.22;5050876;28;20248;-69
2021/08/25 04:10:00;;;;;;;16.07;14.20;;;;;;;14.94;69.83;97126.22;5050894;28;20260;-70
2021/08/25 04:12:25;;;;;;;19.20;16.20;;;;;;;14.86;70.21;97132.44;5049850;28;20175;-70
2021/08/25 04:14:51;;;;;;;17.60;15.63;;;;;;;14.84;70.48;97133.59;5050287;28;20179;-69
2021/08/25 04:17:16;;;;;;;17.73;14.90;;;;;;;14.84;70.41;97129.16;5050828;28;20269;-69
2021/08/25 04:19:42;;;;;;;20.53;15.67;;;;;;;14.85;70.31;97127.31;5041998;28;20708;-69
2021/08/25 04:22:08;;;;;;;22.37;17.00;;;;;;;14.78;70.46;97129.84;5043567;28;20189;-70
2021/08/25 04:24:33;;;;;;;19.77;14.80;;;;;;;14.88;70.15;97133.03;5050341;28;20170;-69
2021/08/25 04:26:59;;;;;;;20.50;16.57;;;;;;;14.55;71.68;97132.56;5050918;28;20609;-70
2021/08/25 04:29:24;;;;;;;18.40;15.57;;;;;;;14.80;70.66;97127.88;5043277;28;20682;-70
2021/08/25 04:31:50;;;;;;;17.53;15.03;;;;;;;14.85;70.11;97127.31;5049493;28;20179;-69
2021/08/25 04:34:16;;;;;;;20.23;16.20;;;;;;;14.82;70.08;97128.50;5049432;28;20244;-70
2021/08/25 04:36:41;;;;;;;17.93;14.87;;;;;;;14.81;70.07;97134.78;5051045;28;20171;-70
2021/08/25 04:39:07;;;;;;;17.50;14.93;;;;;;;14.85;70.00;97125.50;5049426;28;20704;-71
2021/08/25 04:41:33;;;;;;;19.20;16.20;;;;;;;14.72;70.42;97128.75;5050662;28;20182;-70
2021/08/25 04:43:58;;;;;;;19.67;16.13;;;;;;;14.85;70.08;97129.97;5049823;28;20182;-70
2021/08/25 04:46:24;;;;;;;17.37;15.27;;;;;;;14.85;70.03;97125.50;5050220;28;20218;-70
2021/08/25 04:48:49;;;;;;;19.60;15.87;;;;;;;14.90;70.12;97132.88;5050485;28;20203;-70
2021/08/25 04:51:15;;;;;;;19.87;16.10;;;;;;;14.87;70.08;97131.41;5045419;28;20812;-70
2021/08/25 04:53:41;;;;;;;17.80;15.17;;;;;;;14.94;69.83;97128.84;5049472;28;20646;-69
2021/08/25 04:56:07;;;;;;;20.13;16.20;;;;;;;14.95;69.93;97127.06;5049646;28;20183;-72
2021/08/25 04:58:34;;;;;;;20.63;16.43;;;;;;;14.92;69.80;97133.53;5050099;28;20232;-71
2021/08/25 05:00:59;;;;;;;17.83;15.50;;;;;;;14.65;71.75;97132.25;5050720;28;20924;-70
2021/08/25 05:03:25;;;;;;;21.83;17.30;;;;;;;14.84;70.90;97133.59;5049715;28;20433;-71
2021/08/25 05:05:51;;;;;;;20.90;16.80;;;;;;;14.96;70.49;97134.78;5050573;28;20179;-70
2021/08/25 05:08:16;;;;;;;24.03;16.83;;;;;;;15.03;70.28;97134.88;5050329;28;20561;-71
2021/08/25 05:10:48;;;;;;;24.17;16.30;;;;;;;15.09;69.87;97131.50;5050404;28;20677;-70
2021/08/25 05:13:14;;;;;;;23.90;16.23;;;;;;;15.05;70.34;97141.63;5048062;28;20275;-71
2021/08/25 05:15:44;;;;;;;22.50;16.57;;;;;;;15.06;70.45;97137.16;5048507;28;20512;-70
2021/08/25 05:18:09;;;;;;;21.17;16.30;;;;;;;15.28;69.82;97137.22;5049383;28;20425;-70
2021/08/25 05:20:35;;;;;;;20.63;14.47;;;;;;;15.39;69.44;97135.94;5028778;28;20784;-70
2021/08/25 05:23:00;;;;;;;18.50;15.37;;;;;;;15.44;69.25;97130.91;5050736;28;20186;-70
2021/08/25 05:25:26;;;;;;;16.97;15.20;;;;;;;15.46;69.30;97129.75;5049625;28;20298;-70
2021/08/25 05:27:52;;;;;;;22.23;15.73;;;;;;;15.53;68.92;97127.19;5051010;28;20209;-71
2021/08/25 05:30:18;;;;;;;22.40;15.50;;;;;;;15.58;68.76;97131.91;5042495;28;20219;-71
2021/08/25 05:32:43;;;;;;;17.40;14.43;;;;;;;15.67;68.59;97136.06;5049018;28;20463;-71
2021/08/25 05:35:09;;;;;;;18.03;15.53;;;;;;;15.71;68.53;97136.50;5032601;28;20706;-70
2021/08/25 05:37:35;;;;;;;19.80;15.60;;;;;;;15.64;68.43;97145.19;5050194;28;20175;-70
2021/08/25 05:40:00;;;;;;;17.13;14.90;;;;;;;15.38;69.79;97147.50;5034298;28;20801;-71
2021/08/25 05:42:26;;;;;;;19.97;14.50;;;;;;;15.56;69.55;97149.75;5050742;28;20175;-70
2021/08/25 05:44:52;;;;;;;19.57;15.93;;;;;;;15.57;68.81;97146.91;5049836;28;20756;-69
2021/08/25 05:47:17;;;;;;;24.43;14.87;;;;;;;14.97;70.82;97148.81;5053202;28;20249;-71
2021/08/25 05:49:43;;;;;;;20.07;15.57;;;;;;;15.25;70.64;97153.44;5054250;28;20241;-71
2021/08/25 05:52:08;;;;;;;17.60;15.30;;;;;;;15.72;68.84;97148.69;5052014;28;20183;-70
2021/08/25 05:54:34;;;;;;;17.30;15.40;;;;;;;15.78;68.23;97147.97;5053118;28;20167;-71
2021/08/25 05:56:59;;;;;;;22.73;15.00;;;;;;;15.39;69.56;97149.16;5039064;28;20177;-70
2021/08/25 05:59:25;;;;;;;16.50;14.73;;;;;;;15.87;68.81;97151.34;5053397;28;20201;-71
2021/08/25 06:01:51;;;;;;;17.40;15.13;;;;;;;15.41;69.16;97155.06;5031555;28;20212;-71
2021/08/25 06:04:16;;;;;;;17.13;14.90;;;;;;;16.41;67.51;97147.38;5048716;28;20186;-71
2021/08/25 06:06:42;;;;;;;15.20;13.60;;;;;;;17.36;65.18;97136.38;5048737;28;20230;-70
2021/08/25 06:09:07;;;;;;;19.80;14.10;;;;;;;18.47;60.64;97137.06;5051588;28;20603;-70
2021/08/25 06:11:36;;;;;;;12.97;11.67;;;;;;;19.46;57.11;97131.75;5053102;28;20167;-70
2021/08/25 06:14:02;;;;;;;14.57;12.13;;;;;;;19.74;55.98;97138.59;5052190;28;20201;-70
2021/08/25 06:16:28;;;;;;;15.87;11.33;;;;;;;18.77;57.08;97144.59;5053947;28;20421;-71
2021/08/25 06:18:53;;;;;;;14.87;11.10;;;;;;;18.60;57.86;97144.19;5047238;28;20504;-70
2021/08/25 06:21:19;;;;;;;15.20;11.37;;;;;;;18.37;58.63;97139.31;5049669;28;20194;-70
2021/08/25 06:23:45;;;;;;;11.80;10.57;;;;;;;18.36;58.31;97132.34;5053388;28;20171;-69
2021/08/25 06:26:11;;;;;;;12.57;11.27;;;;;;;18.33;58.17;97132.75;5054445;28;20179;-70
2021/08/25 06:28:36;;;;;;;11.90;10.70;;;;;;;18.35;58.58;97130.72;5054523;28;20239;-70
2021/08/25 06:31:02;;;;;;;15.37;11.73;;;;;;;18.08;59.49;97120.09;5043802;28;20765;-70
2021/08/25 06:33:28;;;;;;;19.70;10.87;;;;;;;18.42;58.83;97128.88;5038379;28;20180;-70
2021/08/25 06:35:53;;;;;;;17.80;11.67;;;;;;;18.52;58.15;97125.81;5044393;28;20179;-70
2021/08/25 06:38:19;;;;;;;13.27;10.23;;;;;;;18.60;57.93;97127.44;5053291;28;20201;-69
2021/08/25 06:40:44;;;;;;;11.23;10.13;;;;;;;18.51;58.16;97130.31;5058081;28;20190;-70
2021/08/25 06:43:10;;;;;;;14.57;11.30;;;;;;;18.66;58.07;97131.91;5055719;28;20198;-71
2021/08/25 06:45:35;;;;;;;13.10;11.20;;;;;;;18.37;58.61;97137.44;5072257;28;20171;-70
2021/08/25 06:48:01;;;;;;;12.07;10.87;;;;;;;17.96;60.34;97133.09;5057116;28;20438;-70
2021/08/25 06:50:27;;;;;;;13.80;11.00;;;;;;;18.62;58.90;97136.03;5050108;28;20236;-70
2021/08/25 06:52:52;;;;;;;14.33;11.17;;;;;;;18.56;58.68;97135.81;5068187;28;20178;-71
2021/08/25 06:55:18;;;;;;;14.80;10.80;;;;;;;18.46;58.80;97137.25;5053157;28;20198;-71
2021/08/25 06:57:43;;;;;;;12.60;10.23;;;;;;;18.64;58.39;97141.94;5053309;28;20187;-70
2021/08/25 07:00:09;;;;;;;16.63;10.73;;;;;;;18.33;58.90;97138.91;5045026;28;20220;-71
2021/08/25 07:02:35;;;;;;;12.33;10.47;;;;;;;18.85;57.75;97132.91;5053275;28;20183;-70
2021/08/25 07:05:00;;;;;;;12.33;10.67;;;;;;;18.96;57.82;97128.84;5035784;28;20183;-69
2021/08/25 07:07:26;;;;;;;11.67;10.00;;;;;;;19.01;56.83;97123.75;5051534;28;20525;-72
2021/08/25 07:09:51;;;;;;;12.87;10.53;;;;;;;19.09;56.46;97115.53;5051592;28;20195;-70
2021/08/25 07:12:17;;;;;;;13.40;10.60;;;;;;;19.25;56.60;97113.44;5051483;28;20179;-70
2021/08/25 07:14:43;;;;;;;10.10;9.07;;;;;;;19.21;55.18;97112.22;5040796;28;20686;-69
2021/08/25 07:17:09;;;;;;;9.50;8.50;;;;;;;19.37;54.70;97109.13;5046932;28;20422;-70
2021/08/25 07:19:34;;;;;;;11.10;8.73;;;;;;;19.52;54.67;97113.34;5044081;28;20281;-69
2021/08/25 07:22:00;;;;;;;11.43;8.70;;;;;;;19.55;54.58;97110.25;5052735;28;20187;-71
2021/08/25 07:24:25;;;;;;;9.07;8.10;;;;;;;19.55;54.29;97110.25;5045262;28;20179;-69
2021/08/25 07:26:51;;;;;;;9.93;6.90;;;;;;;19.50;53.61;97110.88;5041577;28;20265;-72
2021/08/25 07:29:16;;;;;;;6.97;6.27;;;;;;;19.36;53.76;97106.66;5051710;28;20332;-71
2021/08/25 07:31:42;;;;;;;7.57;5.97;;;;;;;19.32;52.63;97103.59;5044094;28;20638;-70
2021/08/25 07:34:07;;;;;;;6.10;5.53;;;;;;;19.14;53.42;97115.75;5050961;28;20190;-71
2021/08/25 07:36:33;;;;;;;8.33;6.40;;;;;;;19.11;53.14;97108.19;5051718;28;20555;-70
2021/08/25 07:38:59;;;;;;;7.13;6.20;;;;;;;19.59;51.32;97106.97;5050894;28;20215;-71
2021/08/25 07:41:24;;;;;;;7.00;6.30;;;;;;;19.85;51.25;97096.38;5051234;28;20190;-70
2021/08/25 07:43:50;;;;;;;6.80;5.53;;;;;;;19.82;51.33;97099.47;5048645;28;20901;-71
2021/08/25 07:46:15;;;;;;;7.03;6.03;;;;;;;20.29;49.85;97096.50;5051266;28;20213;-69
2021/08/25 07:48:41;;;;;;;6.70;5.57;;;;;;;20.40;49.85;97099.28;5051554;28;20197;-71
2021/08/25 07:51:10;;;;;;;6.50;5.73;;;;;;;20.10;50.63;97094.59;5034995;28;20201;-69
2021/08/25 07:53:37;;;;;;;6.63;6.03;;;;;;;19.81;50.75;97098.66;5050680;28;20532;-69
2021/08/25 07:56:04;;;;;;;6.67;5.37;;;;;;;20.27;49.88;97099.41;5050235;28;20941;-70
2021/08/25 07:58:29;;;;;;;9.50;6.40;;;;;;;20.23;49.91;97106.19;5050661;28;20488;-70
2021/08/25 08:00:55;;;;;;;9.37;6.30;;;;;;;20.17;50.05;97101.69;5041799;28;20465;-71
2021/08/25 08:03:20;;;;;;;9.60;6.27;;;;;;;20.29;49.43;97097.31;5050844;28;20183;-70
2021/08/25 08:05:48;;;;;;;9.93;5.80;;;;;;;20.51;48.99;97103.06;5053215;28;20259;-72
2021/08/25 08:08:14;;;;;;;8.27;6.03;;;;;;;20.40;49.63;97099.28;5051021;28;20190;-71
2021/08/25 08:10:39;;;;;;;12.03;5.50;;;;;;;20.09;50.30;97095.63;5034396;28;20595;-70
2021/08/25 08:13:05;;;;;;;8.90;5.10;;;;;;;19.82;49.76;97110.09;5050992;28;20182;-70
2021/08/25 08:15:31;;;;;;;7.43;5.03;;;;;;;20.17;49.56;97105.19;5051080;28;20183;-69
2021/08/25 08:17:59;;;;;;;6.03;5.30;;;;;;;20.17;48.24;97105.19;5051034;28;20229;-70
2021/08/25 08:20:24;;;;;;;6.00;5.40;;;;;;;20.53;48.70;97093.03;5040552;28;20454;-71
2021/08/25 08:22:50;;;;;;;14.80;6.90;;;;;;;20.76;50.33;97096.13;5035487;28;20507;-71
2021/08/25 08:25:16;;;;;;;8.47;7.40;;;;;;;20.60;51.55;97097.47;5046304;28;20179;-71
2021/08/25 08:27:41;;;;;;;8.50;7.40;;;;;;;20.82;50.93;97098.72;5051116;28;20182;-70
2021/08/25 08:30:07;;;;;;;9.00;7.80;;;;;;;20.89;50.17;97101.31;5026381;28;20388;-70
2021/08/25 08:32:34;;;;;;;8.37;7.40;;;;;;;20.39;51.21;97104.81;5050744;28;20711;-69
2021/08/25 08:34:59;;;;;;;11.43;7.27;;;;;;;19.85;53.33;97109.69;5050275;28;20866;-69
2021/08/25 08:37:25;;;;;;;10.17;6.90;;;;;;;19.71;53.42;97106.28;5050187;28;20528;-71
2021/08/25 08:39:50;;;;;;;10.07;7.73;;;;;;;19.35;54.42;97103.19;5049029;28;20272;-70
2021/08/25 08:42:34;;;;;;;11.73;7.70;;;;;;;19.02;55.41;97104.13;5050589;28;20179;-70
2021/08/25 08:45:02;;;;;;;10.13;7.53;;;;;;;20.28;52.80;97101.03;5050094;28;20210;-70
2021/08/25 08:47:28;;;;;;;10.80;7.07;;;;;;;20.26;52.02;97097.75;5050701;28;20421;-71
2021/08/25 08:49:56;;;;;;;8.73;7.73;;;;;;;20.85;50.48;97097.47;5050900;28;20906;-70
2021/08/25 08:52:22;;;;;;;8.60;7.20;;;;;;;20.47;51.40;97101.91;5050395;28;21058;-70
2021/08/25 08:54:50;;;;;;;7.47;6.73;;;;;;;21.16;49.93;97103.69;5049981;28;20422;-69
2021/08/25 08:57:16;;;;;;;8.30;7.23;;;;;;;21.13;49.65;97098.81;5049893;28;20497;-71
2021/08/25 08:59:41;;;;;;;8.80;6.97;;;;;;;21.04;49.26;97100.94;5047127;28;20461;-70
2021/08/25 09:02:07;;;;;;;9.50;7.57;;;;;;;21.36;49.61;97098.09;5044406;28;20437;-69
2021/08/25 09:04:35;;;;;;;10.20;7.03;;;;;;;19.94;51.70;97093.28;5041362;28;20280;-69
2021/08/25 09:07:01;;;;;;;6.50;5.90;;;;;;;21.07;49.64;97095.19;5043024;28;20414;-71
2021/08/25 09:09:27;;;;;;;9.73;6.70;;;;;;;21.28;48.66;97091.25;5050472;28;20457;-69
2021/08/25 09:11:54;;;;;;;6.77;6.17;;;;;;;21.51;48.06;97092.38;5050447;28;20472;-70
2021/08/25 09:14:26;;;;;;;6.80;6.13;;;;;;;21.67;47.37;97098.97;5033436;28;20180;-71
2021/08/25 09:16:52;;;;;;;12.03;6.30;;;;;;;20.65;48.68;97093.13;5050575;28;20451;-70
2021/08/25 09:19:18;;;;;;;7.50;6.60;;;;;;;21.10;48.07;97096.56;5038929;28;20517;-70
2021/08/25 09:21:49;;;;;;;8.53;5.77;;;;;;;21.21;47.05;97092.34;5044353;28;20183;-70
2021/08/25 09:24:15;;;;;;;6.00;5.17;;;;;;;21.44;46.65;97091.66;5054006;28;20887;-69
2021/08/25 09:27:07;;;;;;;5.63;5.13;;;;;;;21.57;45.32;97088.81;5053280;28;20429;-70
2021/08/25 09:29:33;;;;;;;5.83;4.70;;;;;;;21.42;45.53;97086.56;5049261;28;20484;-71
2021/08/25 09:31:59;;;;;;;6.97;5.80;;;;;;;21.72;45.50;97088.44;5046059;28;20421;-70
2021/08/25 09:34:32;;;;;;;5.33;4.80;;;;;;;20.83;47.90;97086.22;5053658;28;20422;-71
2021/08/25 09:37:17;;;;;;;5.33;4.83;;;;;;;21.69;45.63;97088.06;5053438;28;20189;-74
2021/08/25 09:39:45;;;;;;;5.70;4.90;;;;;;;21.00;46.42;97092.59;5040713;28;20476;-70
2021/08/25 09:42:12;;;;;;;8.23;4.70;;;;;;;21.31;46.30;97088.09;5052272;28;21156;-72
2021/08/25 09:44:38;;;;;;;6.17;5.40;;;;;;;20.64;46.90;97083.50;5051259;28;20425;-70
2021/08/25 09:47:04;;;;;;;7.40;5.20;;;;;;;21.49;45.81;97095.25;5052282;28;20429;-71
2021/08/25 09:49:30;;;;;;;5.47;4.87;;;;;;;21.49;44.40;97084.59;5053822;28;20191;-70
2021/08/25 09:51:56;;;;;;;6.50;5.60;;;;;;;21.93;43.51;97076.41;5053818;28;20421;-70
2021/08/25 09:54:22;;;;;;;8.33;5.20;;;;;;;21.93;44.27;97072.97;5034966;28;20209;-70
2021/08/25 09:56:52;;;;;;;8.90;5.73;;;;;;;22.17;42.97;97073.81;5051311;28;20182;-69
2021/08/25 09:59:18;;;;;;;6.13;4.97;;;;;;;21.73;44.09;97075.91;5053287;28;20207;-69
2021/08/25 10:01:45;;;;;;;5.13;4.63;;;;;;;22.70;42.37;97069.44;5034415;28;20840;-70
2021/08/25 10:04:14;;;;;;;8.53;4.60;;;;;;;22.82;41.42;97068.63;5048343;28;20217;-73
2021/08/25 10:06:48;;;;;;;6.43;4.43;;;;;;;22.97;40.07;97076.97;5053823;28;20792;-70
2021/08/25 10:09:14;;;;;;;6.00;4.77;;;;;;;23.21;39.75;97066.25;5051945;28;20520;-70
2021/08/25 10:11:56;;;;;;;5.93;4.83;;;;;;;23.22;40.04;97077.72;5053421;28;20843;-70
2021/08/25 10:14:22;;;;;;;5.33;4.83;;;;;;;23.22;39.77;97069.72;5050601;28;20918;-71
2021/08/25 10:16:52;;;;;;;6.60;5.00;;;;;;;22.94;40.47;97071.25;5053199;28;20517;-68
2021/08/25 10:19:30;;;;;;;7.90;4.80;;;;;;;23.05;39.79;97062.44;5044614;28;20206;-71
2021/08/25 10:21:59;;;;;;;6.40;4.87;;;;;;;23.81;38.52;97055.31;5053616;28;20956;-70
2021/08/25 10:24:25;;;;;;;4.70;4.20;;;;;;;22.85;40.40;97060.16;5048311;28;20425;-69
2021/08/25 10:26:57;;;;;;;5.53;4.80;;;;;;;23.45;38.39;97050.91;5053660;28;20425;-70
2021/08/25 10:29:22;;;;;;;5.60;4.20;;;;;;;23.14;39.11;97060.19;5053162;28;20225;-71
2021/08/25 10:31:48;;;;;;;6.60;4.80;;;;;;;22.78;40.03;97059.44;5044535;28;20414;-71
2021/08/25 10:34:21;;;;;;;6.33;4.50;;;;;;;23.54;39.26;97043.31;5049704;28;20719;-69
2021/08/25 10:37:08;;;;;;;5.10;4.13;;;;;;;23.81;38.91;97052.63;5052276;28;20194;-68
2021/08/25 10:39:35;;;;;;;9.53;5.10;;;;;;;23.15;38.01;97049.28;5052275;28;20506;-70
2021/08/25 10:42:02;;;;;;;6.90;4.57;;;;;;;22.81;38.68;97042.94;5052487;28;20426;-70
2021/08/25 10:44:40;;;;;;;4.33;3.90;;;;;;;23.15;39.12;97030.56;5050606;28;20483;-70
2021/08/25 10:47:13;;;;;;;10.90;4.40;;;;;;;23.73;38.57;97019.06;5052491;28;20775;-72
2021/08/25 10:49:41;;;;;;;5.83;4.10;;;;;;;24.35;37.73;97023.53;5052526;28;20434;-71
2021/08/25 10:52:16;;;;;;;6.13;4.40;;;;;;;24.65;36.52;97022.34;5051814;28;20432;-71
2021/08/25 10:54:43;;;;;;;5.10;4.43;;;;;;;23.56;37.52;97014.47;5050998;28;20504;-70
2021/08/25 10:57:11;;;;;;;5.53;4.37;;;;;;;23.78;37.40;97016.44;5052944;28;20425;-70
2021/08/25 10:59:37;;;;;;;7.70;4.33;;;;;;;24.16;36.57;97006.13;5054658;28;20463;-69
2021/08/25 11:02:03;;;;;;;7.83;4.70;;;;;;;24.41;36.58;97002.19;5021966;28;20511;-70
2021/08/25 11:04:29;;;;;;;4.57;3.80;;;;;;;24.19;37.42;97000.28;5036403;28;20956;-71
2021/08/25 11:07:02;;;;;;;7.70;5.03;;;;;;;24.31;36.43;97003.66;5051668;28;20443;-71
2021/08/25 11:09:56;;;;;;;8.60;4.10;;;;;;;24.12;36.43;97004.97;5052562;28;20966;-71
2021/08/25 11:12:23;;;;;;;5.10;4.00;;;;;;;24.25;36.29;97006.53;5047937;28;20952;-71
2021/08/25 11:14:53;;;;;;;6.70;4.53;;;;;;;24.58;35.07;97002.13;5049972;28;20434;-69
2021/08/25 11:17:20;;;;;;;10.00;4.27;;;;;;;24.61;34.78;97002.44;5051051;28;20426;-70
2021/08/25 11:19:59;;;;;;;10.50;4.33;;;;;;;24.38;34.90;96998.13;5043970;28;20457;-71